sensor_id;sensor_type;location;lat;lon;timestamp;pressure;altitude;pressure_sealevel;temperature;humidity
53262;BME280;39658;51.090;-1.786;2022-09-09T00:01:43;99689.09;;;14.71;100.00
53262;BME280;39658;51.090;-1.786;2022-09-09T00:04:21;99684.97;;;14.76;100.00
53262;BME280;39658;51.090;-1.786;2022-09-09T00:06:59;99681.66;;;14.73;100.00
53262;BME280;39658;51.090;-1.786;2022-09-09T00:09:29;99689.72;;;14.73;100.00
53262;BME280;39658;51.090;-1.786;2022-09-09T00:12:00;99676.72;;;14.77;100.00
53262;BME280;39658;51.090;-1.786;2022-09-09T00:14:36;99688.06;;;14.72;100.00
53262;BME280;39658;51.090;-1.786;2022-09-09T00:17:11;99687.66;;;14.69;100.00
53262;BME280;39658;51.090;-1.786;2022-09-09T00:19:39;99682.72;;;14.66;100.00
53262;BME280;39658;51.090;-1.786;2022-09-09T00:22:15;99688.25;;;14.71;100.00
53262;BME280;39658;51.090;-1.786;2022-09-09T00:24:44;99689.72;;;14.73;100.00
53262;BME280;39658;51.090;-1.786;2022-09-09T00:27:17;99681.66;;;14.73;100.00
53262;BME280;39658;51.090;-1.786;2022-09-09T00:29:52;99688.69;;;14.68;100.00
53262;BME280;39658;51.090;-1.786;2022-09-09T00:32:22;99691.78;;;14.65;100.00
53262;BME280;39658;51.090;-1.786;2022-09-09T00:34:53;99690.53;;;14.61;100.00
53262;BME280;39658;51.090;-1.786;2022-09-09T00:37:24;99680.25;;;14.64;100.00
53262;BME280;39658;51.090;-1.786;2022-09-09T00:39:53;99691.38;;;14.61;100.00
53262;BME280;39658;51.090;-1.786;2022-09-09T00:42:25;99682.50;;;14.61;100.00
53262;BME280;39658;51.090;-1.786;2022-09-09T00:44:58;99684.16;;;14.49;100.00
53262;BME280;39658;51.090;-1.786;2022-09-09T00:47:39;99683.75;;;14.45;100.00
53262;BME280;39658;51.090;-1.786;2022-09-09T00:50:17;99686.56;;;14.37;100.00
53262;BME280;39658;51.090;-1.786;2022-09-09T00:52:57;99685.75;;;14.36;100.00
53262;BME280;39658;51.090;-1.786;2022-09-09T00:55:30;99700.34;;;14.34;100.00
53262;BME280;39658;51.090;-1.786;2022-09-09T00:58:00;99698.53;;;14.41;100.00
53262;BME280;39658;51.090;-1.786;2022-09-09T01:00:29;99705.16;;;14.45;100.00
53262;BME280;39658;51.090;-1.786;2022-09-09T01:03:07;99711.13;;;14.47;100.00
53262;BME280;39658;51.090;-1.786;2022-09-09T01:05:45;99705.16;;;14.45;100.00
53262;BME280;39658;51.090;-1.786;2022-09-09T01:08:22;99708.66;;;14.46;100.00
53262;BME280;39658;51.090;-1.786;2022-09-09T01:10:54;99707.84;;;14.45;100.00
53262;BME280;39658;51.090;-1.786;2022-09-09T01:13:24;99708.22;;;14.42;100.00
53262;BME280;39658;51.090;-1.786;2022-09-09T01:15:52;99702.69;;;14.44;100.00
53262;BME280;39658;51.090;-1.786;2022-09-09T01:18:23;99714.63;;;14.54;100.00
53262;BME280;39658;51.090;-1.786;2022-09-09T01:20:59;99704.97;;;14.60;100.00
53262;BME280;39658;51.090;-1.786;2022-09-09T01:26:37;99721.84;;;14.73;100.00
53262;BME280;39658;51.090;-1.786;2022-09-09T01:29:08;99725.75;;;14.78;100.00
53262;BME280;39658;51.090;-1.786;2022-09-09T01:31:37;99728.63;;;14.76;100.00
53262;BME280;39658;51.090;-1.786;2022-09-09T01:34:09;99733.78;;;14.78;100.00
53262;BME280;39658;51.090;-1.786;2022-09-09T01:36:40;99730.06;;;14.79;100.00
53262;BME280;39658;51.090;-1.786;2022-09-09T01:39:09;99730.53;;;14.82;100.00
53262;BME280;39658;51.090;-1.786;2022-09-09T01:41:38;99730.06;;;14.79;100.00
53262;BME280;39658;51.090;-1.786;2022-09-09T01:44:05;99729.06;;;14.80;100.00
53262;BME280;39658;51.090;-1.786;2022-09-09T01:46:33;99729.50;;;14.83;100.00
53262;BME280;39658;51.090;-1.786;2022-09-09T01:49:02;99739.38;;;14.89;100.00
53262;BME280;39658;51.090;-1.786;2022-09-09T01:51:30;99736.50;;;14.84;100.00
53262;BME280;39658;51.090;-1.786;2022-09-09T01:53:57;99741.81;;;14.78;100.00
53262;BME280;39658;51.090;-1.786;2022-09-09T01:56:38;99748.22;;;14.77;100.00
53262;BME280;39658;51.090;-1.786;2022-09-09T01:59:20;99744.50;;;14.71;100.00
53262;BME280;39658;51.090;-1.786;2022-09-09T02:01:59;99746.97;;;14.66;100.00
53262;BME280;39658;51.090;-1.786;2022-09-09T02:04:36;99757.88;;;14.64;100.00
53262;BME280;39658;51.090;-1.786;2022-09-09T02:07:14;99752.75;;;14.63;100.00
53262;BME280;39658;51.090;-1.786;2022-09-09T02:09:47;99766.34;;;14.61;100.00
53262;BME280;39658;51.090;-1.786;2022-09-09T02:12:20;99759.75;;;14.64;100.00
53262;BME280;39658;51.090;-1.786;2022-09-09T02:14:52;99760.16;;;14.61;100.00
53262;BME280;39658;51.090;-1.786;2022-09-09T02:17:25;99756.44;;;14.68;100.00
53262;BME280;39658;51.090;-1.786;2022-09-09T02:19:56;99773.53;;;14.67;100.00
53262;BME280;39658;51.090;-1.786;2022-09-09T02:22:27;99763.88;;;14.66;100.00
53262;BME280;39658;51.090;-1.786;2022-09-09T02:24:57;99764.47;;;14.62;100.00
53262;BME280;39658;51.090;-1.786;2022-09-09T02:27:27;99761.59;;;14.57;100.00
53262;BME280;39658;51.090;-1.786;2022-09-09T02:29:56;99769.63;;;14.50;100.00
53262;BME280;39658;51.090;-1.786;2022-09-09T02:32:25;99771.63;;;14.41;100.00
53262;BME280;39658;51.090;-1.786;2022-09-09T02:34:58;99761.69;;;14.29;100.00
53262;BME280;39658;51.090;-1.786;2022-09-09T02:37:29;99769.69;;;14.16;100.00
53262;BME280;39658;51.090;-1.786;2022-09-09T02:39:58;99776.41;;;13.98;100.00
53262;BME280;39658;51.090;-1.786;2022-09-09T02:42:27;99777.81;;;13.94;100.00
53262;BME280;39658;51.090;-1.786;2022-09-09T02:44:53;99775.94;;;13.88;100.00
53262;BME280;39658;51.090;-1.786;2022-09-09T02:47:26;99785.44;;;13.91;100.00
53262;BME280;39658;51.090;-1.786;2022-09-09T02:50:05;99792.06;;;14.01;100.00
53262;BME280;39658;51.090;-1.786;2022-09-09T02:52:42;99789.84;;;14.11;100.00
53262;BME280;39658;51.090;-1.786;2022-09-09T02:55:17;99784.91;;;14.08;100.00
53262;BME280;39658;51.090;-1.786;2022-09-09T02:57:50;99789.63;;;14.06;100.00
53262;BME280;39658;51.090;-1.786;2022-09-09T03:00:23;99795.56;;;14.02;100.00
53262;BME280;39658;51.090;-1.786;2022-09-09T03:02:50;99792.44;;;13.98;100.00
53262;BME280;39658;51.090;-1.786;2022-09-09T03:05:17;99800.47;;;13.98;100.00
53262;BME280;39658;51.090;-1.786;2022-09-09T03:07:44;99792.84;;;13.95;100.00
53262;BME280;39658;51.090;-1.786;2022-09-09T03:10:11;99803.97;;;13.99;100.00
53262;BME280;39658;51.090;-1.786;2022-09-09T03:12:39;99789.41;;;14.01;100.00
53262;BME280;39658;51.090;-1.786;2022-09-09T03:15:08;99802.19;;;14.06;100.00
53262;BME280;39658;51.090;-1.786;2022-09-09T03:17:35;99798.69;;;14.05;100.00
53262;BME280;39658;51.090;-1.786;2022-09-09T03:20:02;99798.81;;;13.97;100.00
53262;BME280;39658;51.090;-1.786;2022-09-09T03:22:29;99796.31;;;13.89;100.00
53262;BME280;39658;51.090;-1.786;2022-09-09T03:24:56;99801.88;;;13.88;100.00
53262;BME280;39658;51.090;-1.786;2022-09-09T03:27:23;99803.50;;;13.82;100.00
53262;BME280;39658;51.090;-1.786;2022-09-09T03:29:50;99805.53;;;13.80;100.00
53262;BME280;39658;51.090;-1.786;2022-09-09T03:32:19;99804.88;;;13.71;100.00
53262;BME280;39658;51.090;-1.786;2022-09-09T03:34:47;99809.22;;;13.72;100.00
53262;BME280;39658;51.090;-1.786;2022-09-09T03:37:15;99803.19;;;13.64;100.00
53262;BME280;39658;51.090;-1.786;2022-09-09T03:39:43;99817.00;;;13.67;100.00
53262;BME280;39658;51.090;-1.786;2022-09-09T03:42:12;99816.56;;;13.64;100.00
53262;BME280;39658;51.090;-1.786;2022-09-09T03:44:39;99821.00;;;13.57;100.00
53262;BME280;39658;51.090;-1.786;2022-09-09T03:47:07;99822.63;;;13.51;100.00
53262;BME280;39658;51.090;-1.786;2022-09-09T03:49:35;99830.22;;;13.47;100.00
53262;BME280;39658;51.090;-1.786;2022-09-09T03:52:02;99829.94;;;13.36;100.00
53262;BME280;39658;51.090;-1.786;2022-09-09T03:54:29;99832.41;;;13.37;100.00
53262;BME280;39658;51.090;-1.786;2022-09-09T03:56:55;99833.91;;;13.46;100.00
53262;BME280;39658;51.090;-1.786;2022-09-09T03:59:23;99840.00;;;13.62;100.00
53262;BME280;39658;51.090;-1.786;2022-09-09T04:01:50;99835.91;;;13.66;100.00
53262;BME280;39658;51.090;-1.786;2022-09-09T04:04:17;99841.25;;;13.66;100.00
53262;BME280;39658;51.090;-1.786;2022-09-09T04:06:46;99836.97;;;13.71;100.00
53262;BME280;39658;51.090;-1.786;2022-09-09T04:09:13;99837.78;;;13.72;100.00
53262;BME280;39658;51.090;-1.786;2022-09-09T04:11:40;99835.94;;;13.72;100.00
53262;BME280;39658;51.090;-1.786;2022-09-09T04:14:07;99844.59;;;13.74;100.00
53262;BME280;39658;51.090;-1.786;2022-09-09T04:16:34;99841.50;;;13.71;100.00
53262;BME280;39658;51.090;-1.786;2022-09-09T04:19:02;99843.28;;;13.64;100.00
53262;BME280;39658;51.090;-1.786;2022-09-09T04:21:29;99845.63;;;13.73;100.00
53262;BME280;39658;51.090;-1.786;2022-09-09T04:23:58;99849.31;;;13.72;100.00
53262;BME280;39658;51.090;-1.786;2022-09-09T04:26:25;99842.94;;;13.73;100.00
53262;BME280;39658;51.090;-1.786;2022-09-09T04:28:52;99837.59;;;13.73;100.00
53262;BME280;39658;51.090;-1.786;2022-09-09T04:31:20;99839.03;;;13.76;100.00
53262;BME280;39658;51.090;-1.786;2022-09-09T04:33:48;99844.59;;;13.74;100.00
53262;BME280;39658;51.090;-1.786;2022-09-09T04:36:15;99847.06;;;13.76;100.00
53262;BME280;39658;51.090;-1.786;2022-09-09T04:38:43;99848.06;;;13.68;100.00
53262;BME280;39658;51.090;-1.786;2022-09-09T04:41:12;99859.41;;;13.77;100.00
53262;BME280;39658;51.090;-1.786;2022-09-09T04:43:39;99854.50;;;13.80;100.00
53262;BME280;39658;51.090;-1.786;2022-09-09T04:46:06;99849.41;;;13.92;100.00
53262;BME280;39658;51.090;-1.786;2022-09-09T04:48:33;99857.00;;;13.89;100.00
53262;BME280;39658;51.090;-1.786;2022-09-09T04:51:01;99862.34;;;13.89;100.00
53262;BME280;39658;51.090;-1.786;2022-09-09T04:53:30;99871.44;;;13.94;100.00
53262;BME280;39658;51.090;-1.786;2022-09-09T04:56:04;99863.91;;;14.04;100.00
53262;BME280;39658;51.090;-1.786;2022-09-09T04:58:32;99881.81;;;14.04;100.00
53262;BME280;39658;51.090;-1.786;2022-09-09T05:01:04;99875.06;;;14.15;100.00
53262;BME280;39658;51.090;-1.786;2022-09-09T05:03:31;99881.88;;;14.17;100.00
53262;BME280;39658;51.090;-1.786;2022-09-09T05:06:02;99878.22;;;14.31;100.00
53262;BME280;39658;51.090;-1.786;2022-09-09T05:08:30;99878.44;;;14.36;100.00
53262;BME280;39658;51.090;-1.786;2022-09-09T05:10:57;99884.72;;;14.44;100.00
53262;BME280;39658;51.090;-1.786;2022-09-09T05:13:25;99885.91;;;14.41;100.00
53262;BME280;39658;51.090;-1.786;2022-09-09T05:15:53;99895.41;;;14.44;100.00
53262;BME280;39658;51.090;-1.786;2022-09-09T05:18:21;99901.97;;;14.41;100.00
53262;BME280;39658;51.090;-1.786;2022-09-09T05:20:48;99900.78;;;14.44;100.00
53262;BME280;39658;51.090;-1.786;2022-09-09T05:23:16;99895.59;;;14.42;100.00
53262;BME280;39658;51.090;-1.786;2022-09-09T05:25:43;99901.81;;;14.43;100.00
53262;BME280;39658;51.090;-1.786;2022-09-09T05:28:12;99904.81;;;14.39;100.00
53262;BME280;39658;51.090;-1.786;2022-09-09T05:30:39;99902.78;;;14.41;100.00
53262;BME280;39658;51.090;-1.786;2022-09-09T05:33:07;99898.84;;;14.37;100.00
53262;BME280;39658;51.090;-1.786;2022-09-09T05:35:34;99903.16;;;14.38;100.00
53262;BME280;39658;51.090;-1.786;2022-09-09T05:38:01;99902.31;;;14.31;100.00
53262;BME280;39658;51.090;-1.786;2022-09-09T05:40:28;99919.59;;;14.29;100.00
53262;BME280;39658;51.090;-1.786;2022-09-09T05:42:55;99914.63;;;14.26;100.00
53262;BME280;39658;51.090;-1.786;2022-09-09T05:45:25;99918.72;;;14.22;100.00
53262;BME280;39658;51.090;-1.786;2022-09-09T05:47:52;99927.78;;;14.21;100.00
53262;BME280;39658;51.090;-1.786;2022-09-09T05:50:21;99922.19;;;14.16;100.00
53262;BME280;39658;51.090;-1.786;2022-09-09T05:52:48;99920.16;;;14.18;100.00
53262;BME280;39658;51.090;-1.786;2022-09-09T05:55:15;99913.97;;;14.17;100.00
53262;BME280;39658;51.090;-1.786;2022-09-09T05:57:48;99923.81;;;14.10;100.00
53262;BME280;39658;51.090;-1.786;2022-09-09T06:00:15;99924.22;;;14.07;100.00
53262;BME280;39658;51.090;-1.786;2022-09-09T06:02:42;99921.34;;;14.08;100.00
53262;BME280;39658;51.090;-1.786;2022-09-09T06:05:09;99923.59;;;14.05;100.00
53262;BME280;39658;51.090;-1.786;2022-09-09T06:07:38;99922.75;;;14.04;100.00
53262;BME280;39658;51.090;-1.786;2022-09-09T06:10:07;99927.81;;;13.93;100.00
53262;BME280;39658;51.090;-1.786;2022-09-09T06:12:34;99935.41;;;13.89;100.00
53262;BME280;39658;51.090;-1.786;2022-09-09T06:15:01;99932.91;;;13.88;100.00
53262;BME280;39658;51.090;-1.786;2022-09-09T06:17:29;99932.69;;;13.83;100.00
53262;BME280;39658;51.090;-1.786;2022-09-09T06:19:56;99938.84;;;13.83;100.00
53262;BME280;39658;51.090;-1.786;2022-09-09T06:22:23;99936.34;;;13.75;100.00
53262;BME280;39658;51.090;-1.786;2022-09-09T06:24:51;99943.13;;;13.77;100.00
53262;BME280;39658;51.090;-1.786;2022-09-09T06:27:19;99943.75;;;13.79;99.99
53262;BME280;39658;51.090;-1.786;2022-09-09T06:29:47;99941.91;;;13.80;99.83
53262;BME280;39658;51.090;-1.786;2022-09-09T06:32:14;99946.44;;;13.79;99.78
53262;BME280;39658;51.090;-1.786;2022-09-09T06:34:41;99947.25;;;13.80;99.52
53262;BME280;39658;51.090;-1.786;2022-09-09T06:37:07;99948.56;;;13.91;98.77
53262;BME280;39658;51.090;-1.786;2022-09-09T06:39:34;99956.72;;;14.04;97.93
53262;BME280;39658;51.090;-1.786;2022-09-09T06:42:03;99960.59;;;14.36;96.48
53262;BME280;39658;51.090;-1.786;2022-09-09T06:44:30;99971.19;;;14.44;95.86
53262;BME280;39658;51.090;-1.786;2022-09-09T06:46:57;99963.22;;;14.57;94.42
53262;BME280;39658;51.090;-1.786;2022-09-09T06:49:24;99964.50;;;14.68;93.85
53262;BME280;39658;51.090;-1.786;2022-09-09T06:51:50;99967.63;;;14.78;93.10
53262;BME280;39658;51.090;-1.786;2022-09-09T06:54:17;99963.78;;;14.94;92.42
53262;BME280;39658;51.090;-1.786;2022-09-09T06:56:45;99970.59;;;14.96;91.74
53262;BME280;39658;51.090;-1.786;2022-09-09T06:59:13;99977.63;;;15.04;90.61
53262;BME280;39658;51.090;-1.786;2022-09-09T07:01:41;99973.31;;;15.16;91.17
53262;BME280;39658;51.090;-1.786;2022-09-09T07:04:09;99978.06;;;15.21;90.22
53262;BME280;39658;51.090;-1.786;2022-09-09T07:06:38;99969.25;;;15.33;90.09
53262;BME280;39658;51.090;-1.786;2022-09-09T07:09:06;99971.72;;;15.42;89.66
53262;BME280;39658;51.090;-1.786;2022-09-09T07:11:38;99982.25;;;15.50;87.97
53262;BME280;39658;51.090;-1.786;2022-09-09T07:14:06;99979.41;;;15.58;88.89
53262;BME280;39658;51.090;-1.786;2022-09-09T07:16:35;99982.75;;;15.66;89.63
53262;BME280;39658;51.090;-1.786;2022-09-09T07:19:03;99981.09;;;15.79;88.89
53262;BME280;39658;51.090;-1.786;2022-09-09T07:21:31;99990.38;;;15.83;87.62
53262;BME280;39658;51.090;-1.786;2022-09-09T07:23:58;99992.81;;;15.97;87.23
53262;BME280;39658;51.090;-1.786;2022-09-09T07:26:27;99990.75;;;15.99;86.69
53262;BME280;39658;51.090;-1.786;2022-09-09T07:28:54;99983.34;;;16.15;87.29
53262;BME280;39658;51.090;-1.786;2022-09-09T07:31:25;99993.41;;;16.33;86.74
53262;BME280;39658;51.090;-1.786;2022-09-09T07:33:53;100007.66;;;16.40;85.40
53262;BME280;39658;51.090;-1.786;2022-09-09T07:36:22;100016.69;;;16.72;84.68
53262;BME280;39658;51.090;-1.786;2022-09-09T07:38:50;100013.59;;;17.19;83.01
53262;BME280;39658;51.090;-1.786;2022-09-09T07:41:19;100009.00;;;17.71;80.59
53262;BME280;39658;51.090;-1.786;2022-09-09T07:43:47;100019.94;;;18.01;76.91
53262;BME280;39658;51.090;-1.786;2022-09-09T07:46:17;100017.22;;;18.69;75.41
53262;BME280;39658;51.090;-1.786;2022-09-09T07:48:46;100018.34;;;18.62;74.87
53262;BME280;39658;51.090;-1.786;2022-09-09T07:51:19;100010.31;;;19.70;70.30
53262;BME280;39658;51.090;-1.786;2022-09-09T07:53:50;100027.31;;;21.22;64.19
53262;BME280;39658;51.090;-1.786;2022-09-09T07:56:18;100025.56;;;23.44;58.07
53262;BME280;39658;51.090;-1.786;2022-09-09T07:58:47;100021.97;;;25.24;53.77
53262;BME280;39658;51.090;-1.786;2022-09-09T08:01:17;100029.06;;;25.30;52.16
53262;BME280;39658;51.090;-1.786;2022-09-09T08:03:46;100023.88;;;25.24;50.57
53262;BME280;39658;51.090;-1.786;2022-09-09T08:06:13;100031.09;;;24.14;54.64
53262;BME280;39658;51.090;-1.786;2022-09-09T08:08:42;100036.47;;;22.62;57.20
53262;BME280;39658;51.090;-1.786;2022-09-09T08:11:12;100037.69;;;24.23;51.96
53262;BME280;39658;51.090;-1.786;2022-09-09T08:13:41;100031.25;;;24.76;50.31
53262;BME280;39658;51.090;-1.786;2022-09-09T08:16:10;100037.72;;;22.93;55.78
53262;BME280;39658;51.090;-1.786;2022-09-09T08:18:37;100044.84;;;24.71;50.78
53262;BME280;39658;51.090;-1.786;2022-09-09T08:21:06;100037.53;;;25.44;49.23
53262;BME280;39658;51.090;-1.786;2022-09-09T08:23:34;100047.41;;;24.93;49.57
53262;BME280;39658;51.090;-1.786;2022-09-09T08:26:06;100049.06;;;25.67;47.68
53262;BME280;39658;51.090;-1.786;2022-09-09T08:28:34;100055.63;;;26.16;47.71
53262;BME280;39658;51.090;-1.786;2022-09-09T08:31:09;100050.91;;;26.73;45.04
53262;BME280;39658;51.090;-1.786;2022-09-09T08:33:37;100054.72;;;26.77;44.78
53262;BME280;39658;51.090;-1.786;2022-09-09T08:36:05;100052.34;;;26.24;45.91
53262;BME280;39658;51.090;-1.786;2022-09-09T08:38:34;100055.34;;;25.82;44.78
53262;BME280;39658;51.090;-1.786;2022-09-09T08:41:15;100050.09;;;26.77;44.58
53262;BME280;39658;51.090;-1.786;2022-09-09T08:43:47;100045.44;;;27.47;43.55
53262;BME280;39658;51.090;-1.786;2022-09-09T08:46:22;100044.66;;;28.20;42.73
53262;BME280;39658;51.090;-1.786;2022-09-09T08:48:56;100046.25;;;25.41;45.93
53262;BME280;39658;51.090;-1.786;2022-09-09T08:51:27;100054.22;;;27.44;41.77
53262;BME280;39658;51.090;-1.786;2022-09-09T08:53:58;100052.34;;;27.35;44.15
53262;BME280;39658;51.090;-1.786;2022-09-09T08:56:27;100056.22;;;23.94;49.89
53262;BME280;39658;51.090;-1.786;2022-09-09T08:58:59;100069.06;;;21.67;56.82
53262;BME280;39658;51.090;-1.786;2022-09-09T09:01:45;100068.91;;;22.74;52.48
53262;BME280;39658;51.090;-1.786;2022-09-09T09:04:29;100074.34;;;22.91;52.66
53262;BME280;39658;51.090;-1.786;2022-09-09T09:07:04;100081.06;;;21.31;55.70
53262;BME280;39658;51.090;-1.786;2022-09-09T09:09:40;100081.69;;;20.39;59.69
53262;BME280;39658;51.090;-1.786;2022-09-09T09:12:15;100087.50;;;20.54;60.87
53262;BME280;39658;51.090;-1.786;2022-09-09T09:14:44;100097.63;;;20.47;60.92
53262;BME280;39658;51.090;-1.786;2022-09-09T09:17:14;100091.63;;;20.45;61.41
53262;BME280;39658;51.090;-1.786;2022-09-09T09:19:42;100097.25;;;20.44;61.58
53262;BME280;39658;51.090;-1.786;2022-09-09T09:22:15;100095.03;;;20.52;61.24
53262;BME280;39658;51.090;-1.786;2022-09-09T09:24:51;100095.19;;;20.27;60.28
53262;BME280;39658;51.090;-1.786;2022-09-09T09:27:30;100098.28;;;20.78;61.58
53262;BME280;39658;51.090;-1.786;2022-09-09T09:30:00;100102.78;;;20.60;59.71
53262;BME280;39658;51.090;-1.786;2022-09-09T09:32:31;100098.53;;;21.00;58.32
53262;BME280;39658;51.090;-1.786;2022-09-09T09:35:03;100112.25;;;21.10;57.79
53262;BME280;39658;51.090;-1.786;2022-09-09T09:37:36;100111.13;;;20.82;59.51
53262;BME280;39658;51.090;-1.786;2022-09-09T09:40:09;100115.81;;;21.62;58.21
53262;BME280;39658;51.090;-1.786;2022-09-09T09:42:38;100128.13;;;21.70;58.20
53262;BME280;39658;51.090;-1.786;2022-09-09T09:45:16;100126.22;;;23.16;56.86
53262;BME280;39658;51.090;-1.786;2022-09-09T09:47:45;100127.19;;;21.93;57.78
53262;BME280;39658;51.090;-1.786;2022-09-09T09:50:19;100130.63;;;21.08;61.42
53262;BME280;39658;51.090;-1.786;2022-09-09T09:52:54;100134.50;;;20.77;63.61
53262;BME280;39658;51.090;-1.786;2022-09-09T09:55:23;100141.34;;;20.56;63.69
53262;BME280;39658;51.090;-1.786;2022-09-09T09:57:51;100143.72;;;20.22;64.72
53262;BME280;39658;51.090;-1.786;2022-09-09T10:00:20;100142.44;;;19.95;65.52
53262;BME280;39658;51.090;-1.786;2022-09-09T10:02:49;100147.56;;;20.03;65.90
53262;BME280;39658;51.090;-1.786;2022-09-09T10:05:19;100153.09;;;20.20;65.95
53262;BME280;39658;51.090;-1.786;2022-09-09T10:07:57;100148.38;;;20.03;67.25
53262;BME280;39658;51.090;-1.786;2022-09-09T10:10:37;100152.78;;;19.98;66.98
53262;BME280;39658;51.090;-1.786;2022-09-09T10:13:12;100159.25;;;19.97;66.26
53262;BME280;39658;51.090;-1.786;2022-09-09T10:15:48;100157.53;;;19.73;65.71
53262;BME280;39658;51.090;-1.786;2022-09-09T10:18:30;100161.97;;;19.67;66.51
53262;BME280;39658;51.090;-1.786;2022-09-09T10:21:06;100165.41;;;19.74;66.69
53262;BME280;39658;51.090;-1.786;2022-09-09T10:23:48;100165.81;;;19.89;66.60
53262;BME280;39658;51.090;-1.786;2022-09-09T10:26:28;100163.22;;;19.94;67.02
53262;BME280;39658;51.090;-1.786;2022-09-09T10:29:29;100168.53;;;20.01;68.28
53262;BME280;39658;51.090;-1.786;2022-09-09T10:32:09;100177.59;;;19.77;68.22
53262;BME280;39658;51.090;-1.786;2022-09-09T10:34:53;100175.72;;;19.40;69.38
53262;BME280;39658;51.090;-1.786;2022-09-09T10:37:37;100171.03;;;19.36;70.93
53262;BME280;39658;51.090;-1.786;2022-09-09T10:40:23;100174.22;;;19.81;71.69
53262;BME280;39658;51.090;-1.786;2022-09-09T10:42:55;100171.44;;;20.29;69.95
53262;BME280;39658;51.090;-1.786;2022-09-09T10:45:31;100181.19;;;20.72;68.19
53262;BME280;39658;51.090;-1.786;2022-09-09T10:48:12;100185.06;;;21.86;64.67
53262;BME280;39658;51.090;-1.786;2022-09-09T10:50:54;100185.94;;;23.16;62.68
53262;BME280;39658;51.090;-1.786;2022-09-09T10:53:32;100181.78;;;22.58;61.68
53262;BME280;39658;51.090;-1.786;2022-09-09T10:56:06;100182.84;;;21.83;63.60
53262;BME280;39658;51.090;-1.786;2022-09-09T10:58:39;100180.63;;;21.29;62.94
53262;BME280;39658;51.090;-1.786;2022-09-09T11:01:15;100180.38;;;20.60;65.16
53262;BME280;39658;51.090;-1.786;2022-09-09T11:03:47;100185.75;;;20.18;67.56
53262;BME280;39658;51.090;-1.786;2022-09-09T11:06:20;100183.50;;;20.03;66.60
53262;BME280;39658;51.090;-1.786;2022-09-09T11:08:50;100192.66;;;19.84;66.88
53262;BME280;39658;51.090;-1.786;2022-09-09T11:11:24;100185.56;;;19.53;67.50
53262;BME280;39658;51.090;-1.786;2022-09-09T11:13:57;100200.63;;;19.42;68.37
53262;BME280;39658;51.090;-1.786;2022-09-09T11:16:30;100198.25;;;19.53;66.99
53262;BME280;39658;51.090;-1.786;2022-09-09T11:19:00;100204.28;;;20.03;67.00
53262;BME280;39658;51.090;-1.786;2022-09-09T11:21:30;100200.22;;;20.54;66.39
53262;BME280;39658;51.090;-1.786;2022-09-09T11:24:00;100198.94;;;21.15;65.55
53262;BME280;39658;51.090;-1.786;2022-09-09T11:26:32;100209.28;;;21.93;65.13
53262;BME280;39658;51.090;-1.786;2022-09-09T11:29:31;100201.56;;;22.75;62.86
53262;BME280;39658;51.090;-1.786;2022-09-09T11:32:18;100201.50;;;22.54;62.21
53262;BME280;39658;51.090;-1.786;2022-09-09T11:34:56;100208.06;;;22.74;60.30
53262;BME280;39658;51.090;-1.786;2022-09-09T11:40:23;100203.72;;;22.57;59.97
53262;BME280;39658;51.090;-1.786;2022-09-09T11:43:02;100196.09;;;21.97;63.82
53262;BME280;39658;51.090;-1.786;2022-09-09T11:45:32;100199.56;;;21.40;63.42
53262;BME280;39658;51.090;-1.786;2022-09-09T11:48:03;100195.66;;;21.01;63.53
53262;BME280;39658;51.090;-1.786;2022-09-09T11:50:34;100203.28;;;20.81;63.95
53262;BME280;39658;51.090;-1.786;2022-09-09T11:53:21;100209.25;;;20.18;65.67
53262;BME280;39658;51.090;-1.786;2022-09-09T11:56:01;100212.25;;;19.80;67.25
53262;BME280;39658;51.090;-1.786;2022-09-09T11:58:35;100211.66;;;19.59;67.83
53262;BME280;39658;51.090;-1.786;2022-09-09T12:01:13;100211.59;;;19.66;67.39
53262;BME280;39658;51.090;-1.786;2022-09-09T12:03:45;100210.16;;;19.82;67.49
53262;BME280;39658;51.090;-1.786;2022-09-09T12:06:16;100208.06;;;20.14;68.01
53262;BME280;39658;51.090;-1.786;2022-09-09T12:08:48;100214.75;;;20.41;68.13
53262;BME280;39658;51.090;-1.786;2022-09-09T12:11:25;100222.44;;;20.56;67.07
53262;BME280;39658;51.090;-1.786;2022-09-09T12:13:53;100216.59;;;20.82;67.27
53262;BME280;39658;51.090;-1.786;2022-09-09T12:16:29;100221.91;;;21.12;66.11
53262;BME280;39658;51.090;-1.786;2022-09-09T12:19:14;100217.13;;;21.78;63.96
53262;BME280;39658;51.090;-1.786;2022-09-09T12:21:48;100222.13;;;21.98;63.77
53262;BME280;39658;51.090;-1.786;2022-09-09T12:24:23;100224.50;;;22.06;62.27
53262;BME280;39658;51.090;-1.786;2022-09-09T12:26:59;100227.47;;;21.81;62.88
53262;BME280;39658;51.090;-1.786;2022-09-09T12:29:37;100226.25;;;22.29;60.82
53262;BME280;39658;51.090;-1.786;2022-09-09T12:32:10;100232.16;;;22.26;61.16
53262;BME280;39658;51.090;-1.786;2022-09-09T12:34:41;100226.69;;;21.69;64.06
53262;BME280;39658;51.090;-1.786;2022-09-09T12:37:16;100232.13;;;21.57;63.80
53262;BME280;39658;51.090;-1.786;2022-09-09T12:39:48;100235.13;;;22.69;58.11
53262;BME280;39658;51.090;-1.786;2022-09-09T12:42:17;100231.69;;;23.85;55.01
53262;BME280;39658;51.090;-1.786;2022-09-09T12:44:52;100222.97;;;24.58;53.15
53262;BME280;39658;51.090;-1.786;2022-09-09T12:47:21;100217.06;;;26.03;49.51
53262;BME280;39658;51.090;-1.786;2022-09-09T12:49:50;100218.06;;;25.24;51.25
53262;BME280;39658;51.090;-1.786;2022-09-09T12:52:23;100223.22;;;23.81;54.49
53262;BME280;39658;51.090;-1.786;2022-09-09T12:54:56;100224.31;;;22.86;57.17
53262;BME280;39658;51.090;-1.786;2022-09-09T12:57:24;100225.16;;;22.13;59.54
53262;BME280;39658;51.090;-1.786;2022-09-09T13:00:03;100220.00;;;21.48;60.89
53262;BME280;39658;51.090;-1.786;2022-09-09T13:02:31;100220.47;;;21.56;60.56
53262;BME280;39658;51.090;-1.786;2022-09-09T13:05:14;100224.38;;;22.29;60.30
53262;BME280;39658;51.090;-1.786;2022-09-09T13:07:42;100219.41;;;22.55;59.58